createdAt,value
2022-11-23T00:00:03.151Z,92.76
2022-11-23T00:01:21.781Z,92.78
2022-11-23T00:02:24.868Z,92.86
2022-11-23T00:03:27.998Z,92.73
2022-11-23T00:04:30.958Z,92.82
2022-11-23T00:05:34.085Z,92.87
2022-11-23T00:06:37.382Z,92.91
2022-11-23T00:07:40.387Z,92.91
2022-11-23T00:08:43.751Z,93.05
2022-11-23T00:09:46.732Z,92.98
2022-11-23T00:10:49.693Z,92.96
2022-11-23T00:11:52.660Z,93.02
2022-11-23T00:12:55.600Z,93.02
2022-11-23T00:13:58.363Z,93.06
2022-11-23T00:15:01.284Z,93.26
2022-11-23T00:16:08.983Z,93.31
2022-11-23T00:17:11.957Z,93.27
2022-11-23T00:18:15.431Z,93.36
2022-11-23T00:19:18.336Z,93.31
2022-11-23T00:20:21.378Z,93.27
2022-11-23T00:21:25.773Z,93.29
2022-11-23T00:22:28.689Z,93.30
2022-11-23T00:23:31.622Z,93.40
2022-11-23T00:24:34.503Z,93.35
2022-11-23T00:25:37.375Z,93.36
2022-11-23T00:26:40.269Z,93.33
2022-11-23T00:27:43.281Z,93.44
2022-11-23T00:28:46.411Z,93.33
2022-11-23T00:29:49.639Z,93.52
2022-11-23T00:30:52.606Z,93.52
2022-11-23T00:31:55.495Z,93.66
2022-11-23T00:32:58.393Z,93.75
2022-11-23T00:34:01.917Z,93.61
2022-11-23T00:35:05.055Z,93.63
2022-11-23T00:36:13.914Z,93.60
2022-11-23T00:37:17.299Z,93.49
2022-11-23T00:38:20.200Z,93.65
2022-11-23T00:39:24.650Z,93.77
2022-11-23T00:40:27.551Z,93.80
2022-11-23T00:41:30.535Z,93.88
2022-11-23T00:42:37.888Z,93.94
2022-11-23T00:43:38.474Z,93.95
2022-11-23T00:44:42.594Z,93.98
2022-11-23T00:45:45.606Z,94.23
2022-11-23T00:46:48.594Z,94.27
2022-11-23T00:47:51.588Z,94.47
2022-11-23T00:48:55.774Z,94.56
2022-11-23T00:49:58.579Z,94.52
2022-11-23T00:51:03.675Z,94.58
2022-11-23T00:52:06.607Z,94.73
2022-11-23T00:53:09.604Z,94.59
2022-11-23T00:54:12.932Z,94.73
2022-11-23T00:55:15.802Z,94.61
2022-11-23T00:56:19.020Z,94.39
2022-11-23T00:57:21.821Z,94.34
2022-11-23T00:58:25.512Z,94.44
2022-11-23T00:59:28.967Z,94.51
2022-11-23T01:00:32.057Z,94.43
2022-11-23T01:01:38.476Z,94.46
2022-11-23T01:02:41.460Z,94.50
2022-11-23T01:03:46.990Z,94.68
2022-11-23T01:04:49.928Z,94.56
2022-11-23T01:05:52.881Z,94.60
2022-11-23T01:06:57.137Z,94.65
2022-11-23T01:08:00.103Z,94.70
2022-11-23T01:09:06.139Z,94.72
2022-11-23T01:10:09.398Z,94.62
2022-11-23T01:11:12.548Z,94.66
2022-11-23T01:12:15.596Z,94.75
2022-11-23T01:13:18.634Z,94.75
2022-11-23T01:14:22.811Z,94.81
2022-11-23T01:15:26.293Z,94.98
2022-11-23T01:16:32.950Z,94.96
2022-11-23T01:17:36.037Z,94.96
2022-11-23T01:18:39.140Z,94.84
2022-11-23T01:19:42.181Z,94.77
2022-11-23T01:20:45.228Z,94.78
2022-11-23T01:21:48.467Z,94.64
2022-11-23T01:22:52.700Z,94.69
2022-11-23T01:23:55.932Z,94.93
2022-11-23T01:24:58.906Z,94.92
2022-11-23T01:26:06.951Z,94.91
2022-11-23T01:27:09.922Z,94.84
2022-11-23T01:28:13.108Z,94.86
2022-11-23T01:29:16.077Z,94.98
2022-11-23T01:30:19.070Z,95.03
2022-11-23T01:31:23.491Z,94.95
2022-11-23T01:32:26.443Z,94.93
2022-11-23T01:33:29.417Z,95.10
2022-11-23T01:34:32.536Z,95.22
2022-11-23T01:35:35.690Z,95.21
2022-11-23T01:36:39.429Z,95.21
2022-11-23T01:37:42.357Z,95.20
2022-11-23T01:38:46.803Z,95.17
2022-11-23T01:39:49.949Z,95.12
2022-11-23T01:40:52.983Z,95.08
2022-11-23T01:41:56.035Z,95.09
2022-11-23T01:43:00.695Z,94.93
2022-11-23T01:44:23.084Z,94.99
2022-11-23T01:45:34.387Z,94.92
2022-11-23T01:46:37.493Z,95.07
2022-11-23T01:47:40.816Z,95.07
2022-11-23T01:48:53.003Z,94.94
2022-11-23T01:49:55.945Z,94.94
2022-11-23T01:51:02.332Z,94.90
2022-11-23T01:52:08.897Z,94.93
2022-11-23T01:53:12.074Z,94.87
2022-11-23T01:54:18.542Z,94.87
2022-11-23T01:55:21.370Z,94.89
2022-11-23T01:56:27.916Z,94.85
2022-11-23T01:57:34.424Z,94.84
2022-11-23T01:58:40.676Z,94.96
2022-11-23T01:59:44.543Z,94.97
2022-11-23T02:00:49.453Z,94.94
2022-11-23T02:01:52.767Z,94.91
2022-11-23T02:02:58.013Z,94.75
2022-11-23T02:04:02.325Z,94.84
2022-11-23T02:05:06.413Z,94.88
2022-11-23T02:06:15.814Z,94.98
2022-11-23T02:07:20.696Z,95.04
2022-11-23T02:08:23.897Z,94.94
2022-11-23T02:09:29.678Z,94.91
2022-11-23T02:10:34.746Z,94.93
2022-11-23T02:11:37.830Z,94.77
2022-11-23T02:12:40.740Z,94.97
2022-11-23T02:13:47.251Z,94.98
2022-11-23T02:14:50.157Z,94.90
2022-11-23T02:15:55.420Z,95.04
2022-11-23T02:16:59.399Z,94.98
2022-11-23T02:18:05.443Z,95.07
2022-11-23T02:19:28.247Z,94.96
2022-11-23T02:20:32.803Z,95.03
2022-11-23T02:21:35.613Z,95.04
2022-11-23T02:23:06.243Z,95.05
2022-11-23T02:24:15.800Z,95.08
2022-11-23T02:25:31.257Z,95.15
2022-11-23T02:26:35.710Z,95.26
2022-11-23T02:27:45.447Z,95.34
2022-11-23T02:28:48.730Z,95.39
2022-11-23T02:29:53.095Z,95.25
2022-11-23T02:30:56.373Z,95.26
2022-11-23T02:31:59.611Z,95.28
2022-11-23T02:33:06.210Z,95.28
2022-11-23T02:34:09.337Z,95.33
2022-11-23T02:35:12.048Z,95.37
2022-11-23T02:36:24.366Z,95.38
2022-11-23T02:37:28.141Z,95.45
2022-11-23T02:38:33.292Z,95.39
2022-11-23T02:39:39.535Z,95.33
2022-11-23T02:40:42.740Z,95.29
2022-11-23T02:41:48.788Z,95.33
2022-11-23T02:42:51.978Z,95.26
2022-11-23T02:43:56.725Z,95.23
2022-11-23T02:45:10.148Z,95.28
2022-11-23T02:46:13.838Z,95.25
2022-11-23T02:47:16.806Z,95.27
2022-11-23T02:48:19.894Z,95.26
2022-11-23T02:49:23.852Z,95.32
2022-11-23T02:50:27.428Z,95.32
2022-11-23T02:51:30.480Z,95.34
2022-11-23T02:52:33.510Z,95.36
2022-11-23T02:53:36.572Z,95.37
2022-11-23T02:54:39.546Z,95.49
2022-11-23T02:55:42.725Z,95.63
2022-11-23T02:56:45.797Z,95.52
2022-11-23T02:57:49.175Z,95.61
2022-11-23T02:58:52.257Z,95.54
2022-11-23T02:59:55.511Z,95.62
2022-11-23T03:00:58.583Z,95.58
2022-11-23T03:02:02.930Z,95.61
2022-11-23T03:03:06.195Z,95.51
2022-11-23T03:04:10.083Z,95.63
2022-11-23T03:05:13.114Z,95.62
2022-11-23T03:06:16.273Z,95.54
2022-11-23T03:07:19.567Z,95.64
2022-11-23T03:08:24.278Z,95.67
2022-11-23T03:09:27.723Z,95.66
2022-11-23T03:10:30.574Z,95.64
2022-11-23T03:11:33.960Z,95.52
2022-11-23T03:12:38.529Z,95.48
2022-11-23T03:13:41.576Z,95.46
2022-11-23T03:14:45.032Z,95.51
2022-11-23T03:15:48.104Z,95.59
2022-11-23T03:16:51.448Z,95.49
2022-11-23T03:17:56.687Z,95.49
2022-11-23T03:19:00.162Z,95.46
2022-11-23T03:20:03.829Z,95.47
2022-11-23T03:21:08.492Z,95.43
2022-11-23T03:22:12.633Z,95.43
2022-11-23T03:23:15.526Z,95.43
2022-11-23T03:24:19.563Z,95.38
2022-11-23T03:25:23.462Z,95.49
2022-11-23T03:26:28.340Z,95.38
2022-11-23T03:27:34.327Z,95.33
2022-11-23T03:28:37.364Z,95.39
2022-11-23T03:29:40.315Z,95.52
2022-11-23T03:30:45.115Z,95.57
2022-11-23T03:31:48.280Z,95.64
2022-11-23T03:32:52.009Z,95.62
2022-11-23T03:33:55.177Z,95.56
2022-11-23T03:34:59.275Z,95.52
2022-11-23T03:36:02.752Z,95.50
2022-11-23T03:37:07.548Z,95.60
2022-11-23T03:38:10.765Z,95.54
2022-11-23T03:39:13.994Z,95.67
2022-11-23T03:40:18.753Z,95.73
2022-11-23T03:41:26.664Z,95.68
2022-11-23T03:42:29.855Z,95.72
2022-11-23T03:43:33.207Z,95.68
2022-11-23T03:44:36.311Z,95.53
2022-11-23T03:45:41.583Z,95.67
2022-11-23T03:46:44.868Z,95.62
2022-11-23T03:47:48.102Z,95.61
2022-11-23T03:48:51.061Z,95.60
2022-11-23T03:49:54.158Z,95.66
2022-11-23T03:50:57.002Z,95.71
2022-11-23T03:52:00.315Z,95.56
2022-11-23T03:53:03.549Z,95.47
2022-11-23T03:54:06.729Z,95.58
2022-11-23T03:55:09.912Z,95.50
2022-11-23T03:56:13.451Z,95.63
2022-11-23T03:57:18.218Z,95.62
2022-11-23T03:58:21.403Z,95.46
2022-11-23T03:59:25.096Z,95.43
2022-11-23T04:00:29.808Z,95.49
2022-11-23T04:01:33.350Z,95.42
2022-11-23T04:02:38.115Z,95.42
2022-11-23T04:03:42.901Z,95.49
2022-11-23T04:04:53.489Z,95.54
2022-11-23T04:06:00.972Z,95.47
2022-11-23T04:07:11.556Z,95.48
2022-11-23T04:08:16.451Z,95.47
2022-11-23T04:09:19.448Z,95.50
2022-11-23T04:10:24.294Z,95.36
2022-11-23T04:11:29.305Z,95.32
2022-11-23T04:12:32.909Z,95.23
2022-11-23T04:13:36.006Z,95.34
2022-11-23T04:14:39.146Z,95.24
2022-11-23T04:15:42.307Z,95.27
2022-11-23T04:16:45.555Z,95.29
2022-11-23T04:17:48.506Z,95.33
2022-11-23T04:18:51.562Z,95.34
2022-11-23T04:19:54.582Z,95.49
2022-11-23T04:20:57.507Z,95.39
2022-11-23T04:22:00.535Z,95.39
2022-11-23T04:23:09.135Z,95.37
2022-11-23T04:24:10.208Z,95.36
2022-11-23T04:25:13.363Z,95.39
2022-11-23T04:26:16.543Z,95.45
2022-11-23T04:27:20.610Z,95.39
2022-11-23T04:28:24.287Z,95.43
2022-11-23T04:29:27.678Z,95.29
2022-11-23T04:30:30.759Z,95.24
2022-11-23T04:31:33.895Z,95.08
2022-11-23T04:32:47.725Z,95.07
2022-11-23T04:33:50.875Z,95.20
2022-11-23T04:34:54.731Z,95.08
2022-11-23T04:35:57.762Z,95.01
2022-11-23T04:37:00.844Z,95.02
2022-11-23T04:38:05.708Z,95.04
2022-11-23T04:39:11.765Z,95.17
2022-11-23T04:40:16.608Z,95.05
2022-11-23T04:41:27.032Z,95.07
2022-11-23T04:42:30.061Z,95.06
2022-11-23T04:43:35.131Z,95.01
2022-11-23T04:44:38.518Z,94.98
2022-11-23T08:04:05.926Z,99.69
2022-11-23T08:05:14.042Z,99.38
2022-11-23T08:06:15.086Z,99.14
2022-11-23T08:07:17.959Z,98.96
2022-11-23T08:08:20.833Z,98.76
2022-11-23T08:09:23.824Z,98.61
2022-11-23T08:10:31.015Z,98.55
2022-11-23T08:11:33.979Z,98.34
2022-11-23T08:12:36.866Z,98.24
2022-11-23T08:13:40.108Z,98.07
2022-11-23T08:14:43.124Z,98.02
2022-11-23T08:15:51.888Z,97.80
2022-11-23T08:16:51.755Z,97.67
2022-11-23T08:18:02.744Z,97.55
2022-11-23T08:19:05.722Z,97.41
2022-11-23T08:20:09.818Z,97.37
2022-11-23T08:21:12.803Z,97.36
2022-11-23T08:22:16.122Z,97.32
2022-11-23T08:23:19.749Z,97.33
2022-11-23T08:24:22.678Z,97.44
2022-11-23T08:25:27.294Z,97.38
2022-11-23T08:26:30.668Z,97.32
2022-11-23T08:27:33.680Z,97.18
2022-11-23T08:28:38.130Z,97.21
2022-11-23T08:29:41.018Z,97.14
2022-11-23T08:30:44.026Z,96.97
2022-11-23T08:31:47.116Z,96.86
2022-11-23T08:32:50.180Z,96.84
2022-11-23T08:33:53.286Z,96.71
2022-11-23T08:34:56.131Z,96.61
2022-11-23T08:36:05.489Z,96.47
2022-11-23T08:37:08.433Z,96.43
2022-11-23T08:38:11.469Z,96.44
2022-11-23T08:39:14.666Z,96.28
2022-11-23T08:40:24.795Z,96.29
2022-11-23T08:41:23.543Z,96.14
2022-11-23T08:42:26.407Z,96.21
2022-11-23T08:43:29.515Z,96.16
2022-11-23T08:44:32.620Z,96.15
2022-11-23T08:45:35.838Z,96.30
2022-11-23T08:46:39.077Z,96.27
2022-11-23T08:47:42.066Z,96.26
2022-11-23T08:48:45.206Z,96.00
2022-11-23T08:49:48.221Z,95.93
2022-11-23T08:50:51.563Z,95.72
2022-11-23T08:51:54.647Z,95.64
2022-11-23T08:52:58.476Z,95.61
2022-11-23T08:54:01.358Z,95.67
2022-11-23T08:55:04.975Z,95.62
2022-11-23T08:56:08.279Z,95.67
2022-11-23T08:57:11.279Z,95.66
2022-11-23T08:58:14.158Z,95.65
2022-11-23T08:59:17.302Z,95.72
2022-11-23T09:00:20.427Z,95.79
2022-11-23T09:01:23.524Z,95.81
2022-11-23T09:02:26.587Z,95.96
2022-11-23T09:03:29.518Z,95.85
2022-11-23T09:04:32.638Z,95.77
2022-11-23T09:05:38.075Z,95.74
2022-11-23T09:06:41.050Z,95.67
2022-11-23T09:07:44.070Z,95.68
2022-11-23T09:08:47.156Z,95.66
2022-11-23T09:09:50.259Z,95.69
2022-11-23T09:10:53.309Z,95.58
2022-11-23T09:11:56.487Z,95.52
2022-11-23T09:12:59.659Z,95.52
2022-11-23T09:14:02.517Z,95.50
2022-11-23T09:15:05.873Z,95.50
2022-11-23T09:16:09.755Z,95.57
2022-11-23T09:17:12.792Z,95.65
2022-11-23T09:18:15.849Z,95.74
2022-11-23T09:19:18.870Z,95.52
2022-11-23T09:20:22.050Z,95.50
2022-11-23T09:21:26.926Z,95.41
2022-11-23T09:22:29.801Z,95.52
2022-11-23T09:23:32.961Z,95.52
2022-11-23T09:24:36.415Z,95.57
2022-11-23T09:25:39.483Z,95.53
2022-11-23T09:26:42.461Z,95.33
2022-11-23T09:27:45.404Z,95.32
2022-11-23T09:28:48.238Z,95.11
2022-11-23T09:29:51.084Z,95.07
2022-11-23T09:30:55.409Z,95.17
2022-11-23T09:31:58.281Z,95.34
2022-11-23T09:33:01.219Z,95.19
2022-11-23T09:34:04.694Z,95.10
2022-11-23T09:35:08.525Z,95.01
2022-11-23T09:36:11.650Z,95.05
2022-11-23T09:37:15.220Z,95.06
2022-11-23T09:38:18.229Z,95.02
2022-11-23T09:39:21.030Z,95.08
2022-11-23T09:40:27.019Z,95.23
2022-11-23T09:41:39.341Z,95.26
2022-11-23T09:43:19.079Z,95.04
2022-11-23T09:44:34.698Z,94.94
2022-11-23T09:45:47.221Z,94.97
2022-11-23T09:46:59.778Z,94.97
2022-11-23T09:48:14.953Z,94.92
2022-11-23T09:49:24.048Z,95.01
2022-11-23T09:50:36.395Z,94.98
2022-11-23T09:51:40.938Z,94.98
2022-11-23T09:52:46.914Z,95.05
2022-11-23T09:54:01.952Z,95.24
2022-11-23T09:55:20.634Z,95.34
2022-11-23T09:56:36.031Z,95.32
2022-11-23T09:57:41.629Z,95.20
2022-11-23T09:58:44.585Z,95.14
2022-11-23T10:00:00.091Z,95.06
2022-11-23T10:01:06.710Z,94.89
2022-11-23T10:02:24.229Z,94.87
2022-11-23T10:03:28.490Z,94.73
2022-11-23T10:04:35.132Z,94.68
2022-11-23T10:05:39.409Z,94.64
2022-11-23T10:06:43.493Z,94.65
2022-11-23T10:07:55.913Z,94.74
2022-11-23T10:09:17.313Z,94.75
2022-11-23T10:10:48.034Z,94.81
2022-11-23T10:11:57.320Z,94.74
2022-11-23T10:13:15.676Z,94.72
2022-11-23T10:14:25.291Z,94.86
2022-11-23T10:15:31.528Z,95.01
2022-11-23T10:16:50.410Z,94.89
2022-11-23T10:18:25.372Z,94.85
2022-11-23T10:19:31.781Z,94.90
2022-11-23T10:20:41.249Z,94.93
2022-11-23T10:21:56.604Z,94.98
2022-11-23T10:23:01.456Z,94.90
2022-11-23T10:25:38.759Z,95.03
2022-11-23T10:26:41.911Z,95.22
2022-11-23T10:27:48.312Z,95.20
2022-11-23T10:28:51.776Z,94.96
2022-11-23T10:30:44.189Z,94.99
2022-11-23T10:32:01.981Z,94.82
2022-11-23T10:33:14.819Z,94.68
2022-11-23T10:34:38.168Z,94.60
2022-11-23T10:35:41.331Z,94.62
2022-11-23T10:36:44.532Z,94.51
2022-11-23T10:37:47.615Z,94.57
2022-11-23T10:38:54.273Z,94.64
2022-11-23T10:39:57.671Z,94.68
2022-11-23T10:41:07.734Z,94.56
2022-11-23T10:44:02.960Z,94.48
2022-11-23T10:45:08.248Z,94.83
2022-11-23T10:46:30.313Z,94.83
2022-11-23T10:47:37.383Z,94.78
2022-11-23T10:48:40.378Z,94.77
2022-11-23T10:49:46.736Z,94.66
2022-11-23T10:50:50.082Z,94.66
2022-11-23T10:51:59.305Z,94.68
2022-11-23T10:53:23.099Z,94.60
2022-11-23T10:54:36.022Z,94.57
2022-11-23T10:55:54.491Z,94.53
2022-11-23T10:56:59.517Z,94.42
2022-11-23T10:58:02.579Z,94.33
2022-11-23T10:59:07.691Z,94.39
2022-11-23T11:00:14.298Z,94.56
2022-11-23T11:01:26.180Z,94.52
2022-11-23T11:02:31.000Z,94.43
2022-11-23T11:03:35.206Z,94.45
2022-11-23T11:04:38.291Z,94.44
2022-11-23T11:07:14.648Z,94.50
2022-11-23T11:08:20.227Z,94.50
2022-11-23T11:09:24.489Z,94.45
2022-11-23T11:10:40.156Z,94.46
2022-11-23T11:11:46.548Z,94.49
2022-11-23T11:12:51.488Z,94.00
2022-11-23T11:16:07.497Z,94.08
2022-11-23T11:17:14.049Z,94.24
2022-11-23T11:18:18.509Z,94.18
2022-11-23T11:19:27.756Z,94.14
2022-11-23T11:20:34.144Z,94.26
2022-11-23T11:21:40.745Z,94.15
2022-11-23T11:22:47.745Z,94.09
2022-11-23T11:24:01.083Z,93.99
2022-11-23T11:25:06.200Z,93.89
2022-11-23T11:26:22.005Z,93.73
2022-11-23T11:27:28.103Z,93.57
2022-11-23T11:28:34.715Z,93.50
2022-11-23T11:29:47.261Z,93.48
2022-11-23T11:31:28.382Z,93.57
2022-11-23T11:32:49.778Z,93.51
2022-11-23T11:34:11.446Z,93.70
2022-11-23T11:36:54.318Z,94.03
2022-11-23T11:38:19.006Z,93.94
2022-11-23T11:39:40.867Z,94.11
2022-11-23T11:40:51.891Z,94.08
2022-11-23T11:41:57.745Z,94.23
2022-11-23T11:43:07.157Z,94.33
2022-11-23T11:44:14.013Z,94.04
2022-11-23T11:45:26.433Z,93.78
2022-11-23T11:46:33.103Z,93.67
2022-11-23T11:47:45.684Z,93.34
2022-11-23T11:49:01.016Z,93.34
2022-11-23T11:50:08.024Z,93.58
2022-11-23T11:51:14.529Z,93.64
2022-11-23T11:54:01.410Z,93.45
2022-11-23T11:55:13.983Z,93.34
2022-11-23T11:56:29.479Z,93.47
2022-11-23T11:57:38.947Z,93.45
2022-11-23T11:58:46.092Z,93.39
2022-11-23T11:59:52.430Z,93.36
2022-11-23T12:01:05.543Z,93.24
2022-11-23T12:02:20.918Z,93.34
2022-11-23T12:03:36.593Z,93.31
2022-11-23T12:04:52.112Z,93.39
2022-11-23T12:05:59.432Z,93.33
2022-11-23T12:07:06.087Z,93.26
2022-11-23T12:08:34.774Z,93.23
2022-11-23T12:09:44.351Z,93.17
2022-11-23T12:10:57.515Z,93.05
2022-11-23T12:12:00.661Z,93.00
2022-11-23T12:13:04.388Z,92.97
2022-11-23T12:14:10.797Z,92.92
2022-11-23T12:15:48.322Z,92.96
2022-11-23T12:17:10.196Z,92.96
2022-11-23T12:18:13.109Z,92.96
2022-11-23T12:19:22.428Z,92.87
2022-11-23T12:20:40.653Z,93.05
2022-11-23T12:22:03.934Z,92.95
2022-11-23T12:23:19.712Z,93.01
2022-11-23T12:24:59.772Z,93.11
2022-11-23T12:26:30.826Z,93.11
2022-11-23T12:27:53.813Z,93.10
2022-11-23T12:29:06.170Z,93.13
